Airfield :







YOU CAN JOIN US ON...

 
LOGIN :

Register | Disclaimer

   EN    FR    IT 

 









Legend :    VFR   Marginal VFR   IFR   Intensive IFR   Very Intensive IFR
Visi :
Ceiling :
>= 8 km
>= 3000ft
5 to 8 km
1000 to 3000 ft
1500m to 5 km
500 to 1000 ft
800 to 1500m
200 to 500 ft
< 800m
< 200 ft
Symbols :   Thunderstorms  Fog  Heavy snow  Heavy precipitations  Wind > 20 kt






- Airport Elevation : 58 ft
- IATA code : POS


TTPP - Piarco Int.

CURRENT METAR :
  • 271000Z 00000KT 9999 FEW014 22/21 Q1013 NOSIG

EXPIRED METARs :
  • 270900Z 00000KT 9999 FEW010 22/20 Q1013 NOSIG
  • 270800Z 00000KT 9999 FEW015 22/20 Q1013 NOSIG

TAF TAF TTPP
Valid from the 27 at 06:00 until the 28 at 06:00 UTC


270400Z 2706/2806 00000KT 9999 FEW015
BECMG 2712/2714 12012KT SCT020
BECMG 2723/2801 00000KT FEW016



MET'MAP, your aeronautical weather chart ! - Copyright ORBIFLY December 2007 - Disclaimer

ORBIFLY MET'MAP TEAM :

Programming & Development : Alexandra Zaïnal
Concept & original design : Baudouin d'Aumeries
Assistance for programming : Marc-Olivier Méhu
Technical & hardware support : Manuel Goepfert

Contact : metmap@orbifly.com




SOURCES & CREDITS :

   NOAA